Time;durP1;ratioP1;P1;durP2;ratioP2;P2;SDS_P1;SDS_P2;PMS_P1;PMS_P2;Temp;Humidity;BMP_temperature;BMP_pressure;BME280_temperature;BME280_humidity;BME280_pressure;Samples;Min_cycle;Max_cycle;Signal;HPM_P1;HPM_P2
2021/03/25 00:01:09;;;;;;;27.60;14.50;;;7.60;71.70;;;6.64;60.66;98883.72;4986277;28;20914;-79
2021/03/25 00:03:36;;;;;;;24.15;13.75;;;7.60;71.70;;;6.61;60.81;98884.94;4982506;28;20432;-79
2021/03/25 00:06:05;;;;;;;25.30;14.52;;;7.60;72.60;;;6.58;60.82;98880.84;4986705;28;20416;-79
2021/03/25 00:08:32;;;;;;;29.70;14.80;;;7.60;71.80;;;6.58;61.04;98882.66;4989172;28;20869;-79
2021/03/25 00:10:58;;;;;;;26.63;15.13;;;7.60;72.00;;;6.46;61.42;98885.00;4989972;28;20491;-78
2021/03/25 00:13:25;;;;;;;30.63;15.02;;;7.50;72.40;;;6.42;61.59;98878.47;4988880;28;20874;-79
2021/03/25 00:15:51;;;;;;;27.70;15.13;;;7.40;72.70;;;6.42;61.69;98875.84;4990624;28;20420;-79
2021/03/25 00:18:18;;;;;;;30.63;15.95;;;7.40;73.00;;;6.39;61.96;98872.78;4993087;28;20419;-79
2021/03/25 00:20:45;;;;;;;25.98;14.77;;;7.40;74.00;;;6.41;61.87;98870.75;4990100;28;20420;-79
2021/03/25 00:23:13;;;;;;;28.55;15.55;;;7.40;73.50;;;6.40;62.13;98871.75;4985843;28;20443;-79
2021/03/25 00:25:41;;;;;;;30.63;15.98;;;7.40;73.50;;;6.32;62.09;98871.88;4982730;28;20427;-78
2021/03/25 00:28:10;;;;;;;27.52;15.10;;;7.30;73.30;;;6.36;62.17;98868.69;4977963;28;20485;-79
2021/03/25 00:30:36;;;;;;;25.50;14.30;;;7.40;73.60;;;6.35;61.87;98872.31;4977112;28;20519;-78
2021/03/25 00:33:07;;;;;;;31.48;15.32;;;7.40;73.40;;;6.30;62.31;98866.81;4977360;28;20500;-79
2021/03/25 00:35:34;;;;;;;28.00;15.77;;;7.40;73.50;;;6.25;62.42;98869.19;4978190;28;20416;-79
2021/03/25 00:38:01;;;;;;;28.60;14.10;;;7.30;73.60;;;6.31;62.42;98867.66;5045435;28;20805;-79
2021/03/25 00:40:28;;;;;;;30.95;15.18;;;7.30;73.90;;;6.27;62.23;98859.28;4977479;28;20412;-79
2021/03/25 00:42:55;;;;;;;29.95;15.45;;;7.30;73.90;;;6.22;62.53;98864.31;4975951;28;20545;-79
2021/03/25 00:45:27;;;;;;;24.88;14.25;;;7.20;73.90;;;6.21;62.62;98863.50;4975693;28;20417;-79
2021/03/25 00:47:54;;;;;;;27.42;14.15;;;7.20;74.00;;;6.28;62.15;98862.75;4974486;28;20428;-78
2021/03/25 00:50:27;;;;;;;32.88;15.15;;;7.20;73.70;;;6.26;62.42;98857.66;4974444;28;20419;-79
2021/03/25 00:52:53;;;;;;;26.77;15.30;;;7.20;73.90;;;6.20;62.53;98846.09;4977919;28;20527;-79
2021/03/25 00:55:21;;;;;;;26.83;14.55;;;7.20;74.20;;;6.15;63.02;98848.47;4979458;28;20529;-77
2021/03/25 00:57:48;;;;;;;24.55;14.05;;;7.20;74.40;;;6.09;63.15;98851.03;4981303;28;20424;-79
2021/03/25 01:00:20;;;;;;;26.38;14.20;;;7.10;74.80;;;6.05;63.30;98849.78;4980932;28;20412;-80
2021/03/25 01:02:47;;;;;;;27.05;14.40;;;7.10;75.00;;;6.09;62.92;98846.56;5049526;28;20802;-78
2021/03/25 01:05:14;;;;;;;24.40;14.32;;;7.10;74.70;;;6.12;63.00;98842.75;4982226;28;20419;-79
2021/03/25 01:07:40;;;;;;;25.88;14.93;;;7.10;74.70;;;6.08;63.11;98846.78;4982896;28;20454;-79
2021/03/25 01:10:14;;;;;;;24.75;14.20;;;7.10;74.60;;;6.05;63.13;98847.94;4982995;28;20408;-79
2021/03/25 01:12:40;;;;;;;27.60;14.52;;;7.00;74.70;;;6.01;63.25;98838.81;4981765;28;20618;-79
2021/03/25 01:15:10;;;;;;;27.10;14.38;;;7.00;75.00;;;5.89;63.74;98844.72;4983172;28;20865;-79
2021/03/25 01:17:42;;;;;;;33.65;15.07;;;6.90;75.20;;;5.81;63.92;98838.56;4983396;28;20430;-79
2021/03/25 01:20:17;;;;;;;30.20;15.50;;;6.80;75.60;;;5.76;64.27;98832.25;4982945;28;20749;-79
2021/03/25 01:22:43;;;;;;;28.20;14.80;;;6.80;76.00;;;5.73;64.41;98833.41;4981285;28;20427;-79
2021/03/25 01:25:11;;;;;;;29.00;15.23;;;6.70;76.30;;;5.68;64.65;98827.91;5048505;28;20764;-79
2021/03/25 01:27:38;;;;;;;26.40;14.63;;;6.70;76.50;;;5.67;64.94;98833.34;5048422;28;20475;-79
2021/03/25 01:30:08;;;;;;;26.33;14.40;;;6.70;76.70;;;5.60;65.37;98835.06;4982061;28;20480;-79
2021/03/25 01:32:34;;;;;;;25.37;14.93;;;6.60;76.80;;;5.62;65.12;98831.28;4983221;28;20687;-79
2021/03/25 01:35:00;;;;;;;26.65;14.93;;;6.60;77.10;;;5.65;64.92;98827.44;4984722;28;20699;-79
2021/03/25 01:37:26;;;;;;;26.52;14.15;;;6.60;77.00;;;5.66;64.93;98832.53;5052299;28;20499;-79
2021/03/25 01:39:53;;;;;;;27.60;15.07;;;6.70;77.00;;;5.73;64.85;98829.97;4991782;28;20413;-79
2021/03/25 01:42:23;;;;;;;27.37;13.43;;;6.70;76.80;;;5.69;64.84;98826.09;5076364;28;20446;-79
2021/03/25 01:44:49;;;;;;;25.80;14.50;;;6.70;76.70;;;5.67;64.92;98826.28;4983431;28;20439;-79
2021/03/25 01:47:16;;;;;;;27.58;14.02;;;6.70;76.80;;;5.68;64.71;98822.66;4994489;28;20420;-79
2021/03/25 01:49:42;;;;;;;26.80;14.37;;;6.70;76.80;;;5.65;64.84;98820.38;5054843;28;20440;-79
2021/03/25 01:52:39;;;;;;;26.48;14.70;;;6.70;76.80;;;5.55;64.92;98819.06;5066164;28;20434;-79
2021/03/25 01:55:31;;;;;;;26.45;13.85;;;6.60;77.00;;;5.43;65.51;98824.75;4981187;28;20854;-79
2021/03/25 01:58:47;;;;;;;26.90;13.98;;;6.40;77.40;;;5.47;65.56;98809.47;4978923;28;20451;-80
2021/03/25 02:01:27;;;;;;;26.15;14.15;;;6.50;77.80;;;5.47;65.48;98816.53;4980383;28;20782;-78
2021/03/25 02:04:31;;;;;;;28.73;14.68;;;6.50;77.50;;;5.41;65.61;98810.22;4977301;28;20872;-80
2021/03/25 02:07:07;;;;;;;25.13;13.65;;;6.40;77.80;;;5.38;65.81;98810.56;4978799;28;20448;-80
2021/03/25 02:09:47;;;;;;;29.13;14.15;;;6.40;77.80;;;5.34;65.93;98802.22;5047344;28;20439;-80
2021/03/25 02:12:23;;;;;;;27.90;13.65;;;6.40;77.90;;;5.39;65.87;98801.69;4980983;28;20454;-80
2021/03/25 02:15:00;;;;;;;27.90;13.32;;;6.40;78.00;;;5.41;65.59;98797.06;4980616;28;20514;-80
2021/03/25 02:17:32;;;;;;;25.10;13.87;;;6.40;77.80;;;5.30;65.93;98794.91;4983903;28;20492;-80
2021/03/25 02:21:04;;;;;;;30.98;13.80;;;6.30;77.90;;;5.26;66.09;98791.03;4982885;28;20496;-79
2021/03/25 02:24:31;;;;;;;30.95;13.35;;;6.30;78.20;;;5.17;66.36;98787.69;5000204;28;20426;-79
2021/03/25 02:27:24;;;;;;;24.77;13.32;;;6.30;78.40;;;5.15;66.28;98781.78;4981239;28;20483;-79
2021/03/25 02:29:58;;;;;;;29.27;13.77;;;6.20;78.50;;;5.10;66.59;98792.03;4971943;28;20439;-80
2021/03/25 02:32:30;;;;;;;26.27;13.50;;;6.10;78.50;;;5.05;66.62;98787.31;4980642;28;20519;-79
2021/03/25 02:35:01;;;;;;;24.77;14.20;;;6.10;78.90;;;5.01;66.86;98785.25;4980250;28;20420;-79
2021/03/25 02:37:31;;;;;;;24.08;13.65;;;6.10;78.90;;;5.04;66.60;98787.47;4980226;28;20485;-79
2021/03/25 02:40:08;;;;;;;25.48;13.93;;;6.10;79.10;;;5.05;66.76;98781.25;4979519;28;20409;-79
2021/03/25 02:42:42;;;;;;;26.83;14.13;;;6.10;79.00;;;5.05;66.81;98784.69;4979797;28;20424;-79
2021/03/25 02:45:16;;;;;;;24.73;13.68;;;6.10;79.00;;;5.07;66.58;98789.75;4980067;28;20412;-79
2021/03/25 02:47:46;;;;;;;22.83;13.10;;;6.10;79.00;;;5.08;66.87;98794.00;4980365;28;20431;-79
2021/03/25 02:50:20;;;;;;;30.05;13.45;;;6.10;79.10;;;5.25;66.14;98790.22;4980019;28;20424;-79
2021/03/25 02:52:52;;;;;;;25.43;13.67;;;6.20;78.80;;;5.15;66.45;98787.03;4978945;28;20571;-78
2021/03/25 02:55:19;;;;;;;25.70;13.48;;;6.20;78.50;;;5.07;66.79;98790.56;4985167;28;20427;-79
2021/03/25 02:57:59;;;;;;;27.10;13.40;;;6.10;78.70;;;5.00;66.61;98783.59;4991744;28;20443;-79
2021/03/25 03:00:31;;;;;;;27.52;13.88;;;6.10;78.90;;;4.95;67.02;98784.16;4987320;28;20419;-78
2021/03/25 03:03:05;;;;;;;25.67;13.60;;;6.00;79.30;;;4.93;66.85;98773.03;4984279;28;20500;-78
2021/03/25 03:05:36;;;;;;;28.58;13.35;;;6.00;79.40;;;4.90;67.33;98783.06;4982764;28;20412;-78
2021/03/25 03:08:10;;;;;;;24.02;12.82;;;5.90;79.50;;;4.89;67.17;98784.84;5047418;28;20678;-78
2021/03/25 03:10:43;;;;;;;26.35;14.05;;;5.90;79.70;;;4.91;67.13;98787.31;4978655;28;20408;-80
2021/03/25 03:13:13;;;;;;;25.80;13.13;;;5.90;79.70;;;4.95;67.14;98780.72;4981003;28;20523;-80
2021/03/25 03:15:48;;;;;;;26.25;13.90;;;6.00;79.60;;;4.95;67.13;98780.72;4980215;28;20428;-79
2021/03/25 03:18:24;;;;;;;24.30;14.10;;;6.00;79.50;;;4.91;66.99;98771.56;4980500;28;20412;-79
2021/03/25 03:20:57;;;;;;;28.02;14.10;;;5.90;79.40;;;4.87;67.34;98783.44;4980419;28;20424;-79
2021/03/25 03:23:24;;;;;;;24.13;13.48;;;5.90;79.50;;;4.85;67.28;98782.78;5045033;28;20439;-78
2021/03/25 03:25:52;;;;;;;27.60;13.80;;;5.90;79.70;;;4.85;67.19;98780.16;4978512;28;20417;-78
2021/03/25 03:28:24;;;;;;;24.53;14.17;;;5.90;79.70;;;4.81;67.47;98784.16;4977311;28;20644;-78
2021/03/25 03:30:56;;;;;;;26.45;13.27;;;5.90;79.80;;;4.84;67.42;98784.59;4977712;28;20400;-78
2021/03/25 03:33:28;;;;;;;30.35;13.95;;;5.80;79.90;;;4.80;67.38;98780.72;4977464;28;20471;-78
2021/03/25 03:35:58;;;;;;;24.77;14.18;;;5.80;79.90;;;4.75;67.37;98780.41;5046052;28;20430;-78
2021/03/25 03:38:30;;;;;;;28.70;14.05;;;5.90;79.70;;;4.67;67.72;98778.69;4982645;28;20427;-78
2021/03/25 03:40:57;;;;;;;24.15;13.60;;;5.80;80.00;;;4.60;68.10;98783.03;4980501;28;20411;-78
2021/03/25 03:43:24;;;;;;;26.58;13.93;;;5.70;80.20;;;4.61;67.97;98791.69;5068729;28;20484;-78
2021/03/25 03:45:58;;;;;;;30.90;13.90;;;5.70;80.40;;;4.61;68.07;98787.28;4988987;28;20461;-79
2021/03/25 03:48:34;;;;;;;27.77;13.63;;;5.70;80.60;;;4.61;68.03;98787.28;4987815;28;20523;-78
2021/03/25 03:51:03;;;;;;;25.58;13.88;;;5.70;80.60;;;4.70;67.81;98787.19;4987663;28;20423;-79
2021/03/25 03:53:30;;;;;;;29.85;13.63;;;5.70;80.30;;;4.75;67.67;98784.84;5051490;28;20734;-78
2021/03/25 03:56:10;;;;;;;29.30;13.65;;;5.80;80.30;;;4.64;67.58;98786.13;4978676;28;20834;-78
2021/03/25 03:58:44;;;;;;;27.77;13.38;;;5.80;80.00;;;4.66;67.79;98784.94;4979589;28;20439;-79
2021/03/25 04:01:19;;;;;;;30.17;13.35;;;5.70;80.40;;;4.61;68.01;98783.84;4977693;28;20412;-79
2021/03/25 04:03:49;;;;;;;23.50;12.80;;;5.70;80.40;;;4.71;67.55;98784.41;4979731;28;20458;-79
2021/03/25 04:06:22;;;;;;;24.45;13.27;;;5.80;80.40;;;4.79;67.43;98779.09;4976549;28;20444;-78
2021/03/25 04:08:58;;;;;;;25.17;13.50;;;5.80;80.00;;;4.80;67.11;98778.09;4978699;28;20707;-78
2021/03/25 04:11:30;;;;;;;27.30;13.85;;;5.90;79.70;;;4.76;67.51;98783.84;4977269;28;20418;-78
2021/03/25 04:14:03;;;;;;;28.38;13.70;;;5.80;79.80;;;4.72;67.61;98782.59;5060319;28;20822;-79
2021/03/25 04:16:31;;;;;;;23.88;13.70;;;5.80;80.00;;;4.68;67.58;98769.84;4976949;28;20458;-78
2021/03/25 04:19:08;;;;;;;26.15;13.82;;;5.80;80.00;;;4.62;67.80;98782.84;4976729;28;20427;-78
2021/03/25 04:21:40;;;;;;;25.73;13.45;;;5.70;80.20;;;4.61;67.85;98782.03;5043695;28;20420;-79
2021/03/25 04:24:16;;;;;;;26.63;13.00;;;5.70;80.40;;;4.63;68.18;98781.84;4976159;28;20433;-78
2021/03/25 04:26:46;;;;;;;24.85;12.57;;;5.60;80.60;;;4.62;68.14;98783.66;4975562;28;20412;-78
2021/03/25 04:29:18;;;;;;;25.23;12.90;;;5.70;80.70;;;4.61;67.88;98774.16;4976827;28;20464;-79
2021/03/25 04:31:45;;;;;;;24.33;13.07;;;5.70;80.60;;;4.59;68.28;98781.38;5043363;28;20516;-78
2021/03/25 04:34:12;;;;;;;23.80;13.40;;;5.60;80.60;;;4.62;67.89;98780.22;4977124;28;20526;-79
2021/03/25 04:36:42;;;;;;;25.17;13.40;;;5.70;81.40;;;4.58;68.08;98782.41;4978218;28;20412;-79
2021/03/25 04:39:10;;;;;;;26.05;12.90;;;5.60;80.60;;;4.55;68.19;98774.06;4977143;28;20435;-78
2021/03/25 04:41:40;;;;;;;25.40;12.80;;;5.60;80.70;;;4.59;68.11;98778.78;4979774;28;20758;-79
2021/03/25 04:44:16;;;;;;;24.85;13.13;;;5.60;80.60;;;4.55;68.08;98779.31;4980916;28;20434;-79
2021/03/25 04:46:50;;;;;;;24.35;13.23;;;5.60;81.40;;;4.48;68.72;98775.78;4978175;28;20671;-78
2021/03/25 04:49:30;;;;;;;26.50;13.02;;;5.50;80.90;;;4.38;68.77;98786.50;4975446;28;20435;-77
2021/03/25 04:52:01;;;;;;;20.45;11.80;;;5.50;81.10;;;4.28;69.12;98778.88;4976051;28;20806;-79
2021/03/25 04:54:32;;;;;;;28.02;12.70;;;5.50;81.40;;;4.33;68.89;98770.50;4979313;28;20447;-78
2021/03/25 04:57:08;;;;;;;23.70;12.85;;;5.40;81.60;;;4.33;68.93;98775.75;5044872;28;20436;-78
2021/03/25 04:59:37;;;;;;;23.95;13.15;;;5.40;81.50;;;4.35;68.67;98770.34;5045145;28;20424;-78
2021/03/25 05:02:06;;;;;;;21.75;12.82;;;5.50;81.30;;;4.28;69.11;98773.63;4976218;28;20412;-78
2021/03/25 05:04:39;;;;;;;25.15;13.20;;;5.40;81.50;;;4.28;68.98;98770.22;5059820;28;20822;-78
2021/03/25 05:07:07;;;;;;;24.27;13.00;;;5.40;81.80;;;4.28;68.99;98767.59;4978183;28;20506;-78
2021/03/25 05:09:36;;;;;;;21.98;12.50;;;5.30;81.80;;;4.31;69.21;98774.28;4979403;28;20557;-78
2021/03/25 05:12:05;;;;;;;26.20;13.17;;;5.40;81.90;;;4.33;69.11;98773.13;4975931;28;20439;-77
2021/03/25 05:14:31;;;;;;;29.40;13.23;;;5.40;81.90;;;4.36;69.10;98777.22;4979339;28;20416;-78
2021/03/25 05:17:14;;;;;;;20.83;12.82;;;5.40;81.70;;;4.41;68.82;98780.91;5063374;28;20427;-78
2021/03/25 05:19:54;;;;;;;28.42;13.00;;;5.50;81.70;;;4.40;69.03;98786.34;4980027;28;20423;-78
2021/03/25 05:22:29;;;;;;;24.50;12.27;;;5.40;81.50;;;4.41;68.97;98783.53;4978461;28;20417;-78
2021/03/25 05:25:06;;;;;;;22.08;12.30;;;5.40;81.70;;;4.37;69.02;98787.50;5044296;28;20428;-78
2021/03/25 05:27:41;;;;;;;24.08;13.02;;;5.40;81.70;;;4.39;68.94;98782.91;4977978;28;20428;-79
2021/03/25 05:30:13;;;;;;;23.92;11.82;;;5.40;81.80;;;4.42;68.84;98787.78;4979197;28;20425;-79
2021/03/25 05:32:44;;;;;;;20.85;12.02;;;5.40;81.70;;;4.43;68.65;98786.00;4982636;28;20446;-79
2021/03/25 05:35:17;;;;;;;21.97;11.97;;;5.50;81.40;;;4.40;68.65;98787.16;4982852;28;20417;-79
2021/03/25 05:37:44;;;;;;;21.77;11.55;;;5.40;81.40;;;4.29;68.98;98792.81;4981066;28;20416;-78
2021/03/25 05:40:20;;;;;;;23.73;11.93;;;5.40;81.60;;;4.21;69.45;98785.81;4986233;28;20566;-78
2021/03/25 05:42:57;;;;;;;21.77;12.05;;;5.30;82.20;;;4.18;69.36;98794.03;4986748;28;20455;-78
2021/03/25 05:45:50;;;;;;;18.90;11.20;;;5.20;82.40;;;4.26;69.71;98799.22;4978753;28;20428;-77
2021/03/25 05:48:47;;;;;;;18.45;11.10;;;5.30;82.60;;;4.32;69.44;98796.88;5047948;28;20428;-78
2021/03/25 05:51:25;;;;;;;25.52;11.88;;;5.40;82.40;;;4.37;69.17;98800.59;4981986;28;20404;-79
2021/03/25 05:54:16;;;;;;;22.13;11.33;;;5.40;82.30;;;4.39;68.94;98800.44;4981702;28;20830;-78
2021/03/25 05:57:06;;;;;;;21.48;11.82;;;5.40;81.90;;;4.44;69.09;98801.53;4979055;28;20408;-78
2021/03/25 05:59:42;;;;;;;21.38;11.75;;;5.50;82.10;;;4.49;69.13;98804.44;4978522;28;20871;-78
2021/03/25 06:02:21;;;;;;;25.93;12.70;;;5.50;81.80;;;4.42;68.19;98806.16;4978326;28;20825;-78
2021/03/25 06:04:51;;;;;;;26.30;12.00;;;5.50;80.80;;;4.56;68.66;98805.38;4978544;28;20416;-78
2021/03/25 06:08:04;;;;;;;20.23;11.38;;;5.60;81.20;;;4.67;67.78;98804.09;4977643;28;20760;-77
2021/03/25 06:10:51;;;;;;;31.48;11.95;;;5.70;80.70;;;4.61;67.68;98800.38;4976248;28;20777;-78
2021/03/25 06:13:39;;;;;;;25.03;11.67;;;5.70;80.00;;;4.68;67.55;98801.31;4977542;28;20412;-77
2021/03/25 06:16:57;;;;;;;30.80;11.68;;;5.80;80.10;;;4.80;66.95;98809.56;4978532;28;20400;-80
2021/03/25 06:20:06;;;;;;;26.73;12.20;;;5.90;79.50;;;4.89;66.81;98805.03;5007527;28;20406;-79
2021/03/25 06:22:39;;;;;;;34.50;12.20;;;6.00;79.10;;;5.00;66.28;98804.59;4991910;28;20805;-80
2021/03/25 06:25:35;;;;;;;31.10;11.20;;;6.10;78.70;;;5.10;65.69;98807.78;4986995;28;20488;-80
2021/03/25 06:28:26;;;;;;;29.80;11.00;;;6.20;78.00;;;5.19;65.60;98814.53;4982578;28;20416;-80
2021/03/25 06:31:19;;;;;;;26.20;11.00;;;6.30;77.70;;;5.29;65.15;98814.28;4984708;28;20749;-80
2021/03/25 06:33:55;;;;;;;24.55;10.73;;;6.40;77.20;;;5.37;64.47;98816.81;4985961;28;20431;-80
2021/03/25 06:36:43;;;;;;;36.00;12.00;;;6.50;76.70;;;5.50;64.63;98821.41;4985322;28;20499;-78
2021/03/25 06:39:22;;;;;;;27.60;11.10;;;6.60;76.70;;;5.58;64.08;98816.03;5052370;28;20432;-79
2021/03/25 06:42:09;;;;;;;24.85;11.52;;;6.60;76.10;;;5.62;63.62;98812.06;4999699;28;20472;-80
2021/03/25 06:44:44;;;;;;;39.63;12.10;;;6.70;75.50;;;5.72;63.33;98821.28;5087861;28;20422;-80
2021/03/25 06:47:39;;;;;;;28.77;14.47;;;6.80;75.20;;;5.77;63.42;98816.28;5003044;28;20526;-80
2021/03/25 06:50:08;;;;;;;33.28;13.43;;;6.90;75.10;;;5.84;63.09;98817.19;5004254;28;20799;-80
2021/03/25 06:52:37;;;;;;;32.05;15.43;;;6.90;74.80;;;5.87;62.65;98821.22;4999377;28;20441;-79
2021/03/25 06:55:10;;;;;;;26.92;11.02;;;7.00;74.30;;;5.97;62.20;98821.78;4997217;28;20890;-80
2021/03/25 06:57:45;;;;;;;36.13;16.33;;;7.10;73.60;;;6.09;62.00;98819.50;4992856;28;20506;-78
2021/03/25 07:00:16;;;;;;;23.17;9.50;;;7.20;74.40;;;6.26;61.01;98817.41;4995904;28;20406;-79
2021/03/25 07:02:46;;;;;;;43.28;11.75;;;7.30;72.50;;;6.40;60.68;98817.34;4998053;28;20498;-80
2021/03/25 07:05:20;;;;;;;35.38;11.93;;;7.40;72.10;;;6.43;60.85;98813.53;5083425;28;20430;-80
2021/03/25 07:08:01;;;;;;;53.47;11.15;;;7.50;72.20;;;6.55;59.99;98818.06;5081852;28;20446;-79
2021/03/25 07:10:28;;;;;;;29.40;10.98;;;7.60;71.30;;;6.52;60.21;98812.41;4995780;28;20500;-78
2021/03/25 07:13:04;;;;;;;27.30;11.55;;;7.60;71.10;;;6.34;61.02;98814.66;5001637;28;20414;-78
2021/03/25 07:15:33;;;;;;;33.92;12.20;;;7.50;71.90;;;6.27;61.01;98819.84;5003314;28;20466;-79
2021/03/25 07:18:05;;;;;;;28.85;12.75;;;7.40;72.00;;;6.30;61.05;98821.31;4999837;28;20471;-79
2021/03/25 07:20:34;;;;;;;32.15;11.35;;;7.40;72.30;;;6.31;61.07;98815.06;4997949;28;20514;-79
2021/03/25 07:23:08;;;;;;;28.23;12.10;;;7.40;72.20;;;6.38;60.57;98818.56;4998180;28;20431;-79
2021/03/25 07:25:39;;;;;;;33.63;12.20;;;7.40;72.00;;;6.54;60.39;98816.44;4997475;28;20415;-80
2021/03/25 07:28:15;;;;;;;29.73;11.50;;;7.60;71.80;;;6.71;59.95;98819.63;4998935;28;20450;-77
2021/03/25 07:30:46;;;;;;;24.42;11.10;;;7.70;71.00;;;6.78;59.41;98824.94;4997098;28;20418;-79
2021/03/25 07:33:16;;;;;;;31.65;11.88;;;7.80;70.40;;;6.89;59.38;98822.59;4998372;28;20861;-79
2021/03/25 07:35:46;;;;;;;29.60;11.63;;;8.00;70.30;;;6.95;59.09;98818.38;4999621;28;20407;-79
2021/03/25 07:38:33;;;;;;;23.20;11.70;;;8.00;70.00;;;6.96;58.79;98826.09;4998929;28;20418;-79
2021/03/25 07:41:10;;;;;;;31.97;12.40;;;8.10;69.60;;;7.06;58.83;98825.75;5083735;28;20462;-79
2021/03/25 07:43:57;;;;;;;32.17;11.68;;;8.10;69.70;;;7.25;58.15;98822.41;5083056;28;20491;-79
2021/03/25 07:46:31;;;;;;;38.38;12.38;;;8.30;69.20;;;7.40;57.56;98819.66;4999144;28;20851;-79
2021/03/25 07:49:07;;;;;;;35.05;11.63;;;8.40;68.20;;;7.67;56.76;98823.19;4999859;28;20874;-79
2021/03/25 07:51:51;;;;;;;42.30;18.80;;;8.70;67.60;;;7.92;55.97;98826.94;4999236;28;20510;-79
2021/03/25 07:54:26;;;;;;;33.95;13.00;;;8.90;66.40;;;8.11;55.60;98825.38;5000293;28;20479;-79
2021/03/25 07:57:07;;;;;;;37.08;13.85;;;9.10;65.70;;;8.27;55.10;98821.56;5002437;28;20491;-79
2021/03/25 07:59:44;;;;;;;29.58;12.00;;;9.30;65.20;;;8.35;54.73;98832.75;5006599;28;20529;-79
2021/03/25 08:02:35;;;;;;;29.33;11.75;;;9.40;64.40;;;8.64;54.28;98831.56;5094635;28;20438;-79
2021/03/25 08:05:27;;;;;;;25.92;10.70;;;9.60;64.50;;;8.74;53.51;98829.31;5009986;28;20395;-79
2021/03/25 08:07:57;;;;;;;32.00;11.30;;;9.80;62.80;;;8.61;53.60;98831.97;5093063;28;20824;-80
2021/03/25 08:10:33;;;;;;;33.13;11.50;;;9.70;62.70;;;8.44;54.17;98833.38;5006556;28;20442;-79
2021/03/25 08:13:11;;;;;;;34.30;11.75;;;9.50;63.40;;;8.37;54.20;98825.44;5009165;28;20493;-79
2021/03/25 08:15:45;;;;;;;31.92;12.80;;;9.40;63.70;;;8.38;54.45;98824.44;5009128;28;20494;-79
2021/03/25 08:18:32;;;;;;;38.80;11.60;;;9.40;64.00;;;8.47;53.98;98823.22;5008594;28;20422;-79
2021/03/25 08:21:16;;;;;;;32.20;11.50;;;9.50;64.00;;;8.53;54.38;98826.88;5010596;28;20437;-79
2021/03/25 08:24:30;;;;;;;28.70;11.43;;;9.50;64.00;;;8.65;53.99;98822.59;5009094;28;20499;-78
2021/03/25 08:27:22;;;;;;;47.30;11.98;;;9.60;63.60;;;8.72;53.52;98820.78;5003572;28;20411;-80
2021/03/25 08:30:02;;;;;;;77.57;15.27;;;9.70;63.20;;;8.88;53.48;98825.66;5005142;28;20430;-78
2021/03/25 08:32:44;;;;;;;29.77;11.32;;;9.90;63.30;;;8.91;52.99;98821.78;5001242;28;20422;-79
2021/03/25 08:35:21;;;;;;;32.13;11.48;;;9.90;62.50;;;8.95;52.78;98824.84;4999963;28;20424;-79
2021/03/25 08:38:28;;;;;;;29.53;10.13;;;10.00;62.30;;;9.03;52.77;98816.69;5085527;28;20441;-79
2021/03/25 08:40:59;;;;;;;69.35;15.32;;;10.00;62.10;;;9.18;52.53;98823.38;5004621;28;20415;-79
2021/03/25 08:43:32;;;;;;;85.22;15.40;;;10.20;61.90;;;9.36;52.42;98819.25;5004784;28;20438;-79
2021/03/25 08:46:05;;;;;;;30.05;10.60;;;10.30;61.90;;;9.42;51.61;98816.59;5005507;28;20406;-79
2021/03/25 08:48:40;;;;;;;61.93;13.37;;;10.40;61.00;;;9.50;51.84;98816.38;5005209;28;20426;-80
2021/03/25 08:51:12;;;;;;;36.20;13.23;;;10.50;61.10;;;9.59;51.53;98820.41;5005509;28;20407;-79
2021/03/25 08:53:48;;;;;;;28.70;12.37;;;10.60;60.50;;;9.63;51.42;98821.59;5006240;28;20418;-78
2021/03/25 08:56:35;;;;;;;38.23;14.73;;;10.60;60.00;;;9.73;51.15;98821.16;5007396;28;20445;-78
2021/03/25 08:59:11;;;;;;;29.67;12.38;;;10.70;60.00;;;9.71;50.96;98816.06;5010085;28;20403;-80
2021/03/25 09:01:45;;;;;;;28.85;11.35;;;10.70;59.80;;;9.81;50.71;98823.56;5005325;28;20464;-80
2021/03/25 09:04:16;;;;;;;42.55;12.30;;;10.80;59.80;;;9.91;50.84;98823.13;5003791;28;20492;-79
2021/03/25 09:06:47;;;;;;;33.53;11.30;;;10.90;59.80;;;10.02;50.61;98815.31;5004182;28;20422;-77
2021/03/25 09:09:44;;;;;;;25.42;11.43;;;11.00;59.40;;;10.12;49.95;98816.69;4999501;28;20483;-79
2021/03/25 09:12:21;;;;;;;28.27;11.70;;;11.10;58.90;;;10.28;49.79;98816.22;5083116;28;20466;-80
2021/03/25 09:14:48;;;;;;;29.48;10.23;;;11.20;59.00;;;10.46;49.61;98821.56;5086425;28;20630;-79
2021/03/25 09:17:18;;;;;;;22.48;9.75;;;11.40;58.80;;;10.54;48.89;98812.56;5085828;28;20452;-79
2021/03/25 09:19:52;;;;;;;28.05;10.85;;;11.50;57.70;;;10.53;48.92;98810.94;5002980;28;20448;-79
2021/03/25 09:22:47;;;;;;;24.73;9.98;;;11.50;57.60;;;10.58;48.85;98811.94;5003270;28;20439;-79
2021/03/25 09:25:40;;;;;;;27.15;9.98;;;11.50;57.50;;;10.62;48.70;98812.28;5001238;28;20466;-79
2021/03/25 09:28:16;;;;;;;28.02;10.98;;;11.60;57.30;;;10.70;48.82;98809.38;5003615;28;20573;-79
2021/03/25 09:31:03;;;;;;;25.38;9.63;;;11.70;57.50;;;10.92;48.54;98810.59;5002238;28;20459;-79
2021/03/25 09:33:49;;;;;;;29.05;10.27;;;11.80;57.60;;;11.09;48.19;98811.66;5003565;28;20429;-78
2021/03/25 09:36:45;;;;;;;23.13;10.02;;;12.00;57.10;;;11.18;47.90;98814.84;5004623;28;20434;-79
2021/03/25 09:39:29;;;;;;;29.98;10.30;;;12.10;56.60;;;11.21;47.51;98820.50;5004587;28;20453;-79
2021/03/25 09:41:59;;;;;;;33.75;10.45;;;12.20;56.30;;;11.31;47.76;98824.50;5002339;28;20449;-79
2021/03/25 09:44:37;;;;;;;37.72;13.05;;;12.20;56.50;;;11.31;47.78;98820.00;5001355;28;20447;-79
2021/03/25 09:47:28;;;;;;;28.50;10.35;;;12.30;56.40;;;11.45;48.01;98823.31;4999562;28;20452;-79
2021/03/25 09:50:13;;;;;;;37.70;14.13;;;12.30;56.60;;;11.48;47.78;98826.34;5075387;28;20448;-79
2021/03/25 09:53:01;;;;;;;26.07;10.00;;;12.40;56.30;;;11.51;47.95;98817.13;5002447;28;20548;-80
2021/03/25 09:55:30;;;;;;;36.00;10.70;;;12.50;56.60;;;11.65;47.55;98827.34;5001677;28;20425;-79
2021/03/25 09:57:57;;;;;;;29.27;10.73;;;12.60;56.40;;;11.73;47.89;98828.88;5087108;28;20614;-79
2021/03/25 10:00:57;;;;;;;42.78;10.43;;;12.60;56.30;;;11.77;47.47;98826.66;5003275;28;20710;-78
2021/03/25 10:04:22;;;;;;;34.22;11.60;;;12.70;56.00;;;11.82;46.83;98826.78;5002248;28;20471;-78
2021/03/25 10:07:00;;;;;;;26.88;10.52;;;12.80;55.30;;;11.96;46.90;98828.22;5008352;28;20699;-78
2021/03/25 10:09:58;;;;;;;28.48;10.80;;;12.80;55.70;;;12.11;46.62;98817.19;5007377;28;20447;-79
2021/03/25 10:13:13;;;;;;;39.28;11.68;;;13.00;55.00;;;12.30;46.53;98816.13;4995955;28;20459;-78
2021/03/25 10:15:55;;;;;;;18.70;9.27;;;13.10;55.20;;;12.21;45.00;98809.50;4979973;28;20473;-78
2021/03/25 10:18:59;;;;;;;55.85;26.73;;;13.20;53.30;;;12.30;45.44;98810.81;5062962;28;20604;-78
2021/03/25 10:21:55;;;;;;;32.78;11.18;;;13.20;54.00;;;12.55;45.58;98813.31;4981056;28;20413;-78
2021/03/25 10:24:25;;;;;;;30.73;9.20;;;13.40;54.40;;;12.71;45.03;98815.25;4978187;28;20412;-79
2021/03/25 10:27:20;;;;;;;34.70;10.10;;;13.60;53.70;;;12.72;44.64;98814.22;4979692;28;20463;-79
2021/03/25 10:29:48;;;;;;;24.80;10.32;;;13.60;53.00;;;12.78;44.74;98808.00;4980485;28;20435;-78
2021/03/25 10:32:25;;;;;;;22.95;9.82;;;13.70;53.10;;;12.77;44.14;98798.44;4981038;28;20416;-79
2021/03/25 10:34:57;;;;;;;24.25;9.77;;;13.70;52.30;;;12.74;43.73;98807.66;4986399;28;20424;-78
2021/03/25 10:37:31;;;;;;;35.43;10.43;;;13.70;52.10;;;12.77;44.10;98791.25;4981907;28;20432;-78
2021/03/25 10:40:06;;;;;;;28.55;9.63;;;13.70;52.50;;;12.89;44.01;98790.44;4981280;28;20408;-78
2021/03/25 10:42:38;;;;;;;19.70;8.75;;;13.80;52.40;;;12.99;43.29;98793.34;4981764;28;20822;-78
2021/03/25 10:45:25;;;;;;;27.15;10.23;;;13.90;51.70;;;12.93;43.54;98795.06;5064509;28;20760;-78
2021/03/25 10:48:01;;;;;;;28.00;9.67;;;13.80;51.60;;;13.01;43.26;98788.59;5064064;28;20428;-78
2021/03/25 10:50:39;;;;;;;26.50;11.90;;;13.90;51.30;;;13.09;42.90;98789.03;4981294;28;20439;-77
2021/03/25 10:53:11;;;;;;;32.37;12.10;;;14.00;51.40;;;13.03;42.86;98789.16;5064059;28;20458;-79
2021/03/25 10:55:42;;;;;;;28.40;9.85;;;14.00;51.50;;;13.15;42.58;98777.53;4980978;28;20443;-79
2021/03/25 10:58:25;;;;;;;25.65;9.70;;;14.00;51.00;;;13.39;41.95;98778.28;5067942;28;20455;-79